createdAt,value
2022-08-14T00:02:03.162Z,2.30
2022-08-14T00:04:42.078Z,2.25
2022-08-14T00:07:14.005Z,2.47
2022-08-14T00:09:55.741Z,2.03
2022-08-14T00:12:33.447Z,2.50
2022-08-14T00:15:20.169Z,2.30
2022-08-14T00:17:53.297Z,2.53
2022-08-14T00:20:30.846Z,2.45
2022-08-14T00:23:12.300Z,1.90
2022-08-14T00:25:53.794Z,2.10
2022-08-14T00:28:35.161Z,2.42
2022-08-14T00:31:04.762Z,2.15
2022-08-14T00:33:50.595Z,2.67
2022-08-14T00:36:36.152Z,1.67
2022-08-14T00:39:06.634Z,2.33
2022-08-14T00:41:36.197Z,2.08
2022-08-14T00:44:06.544Z,1.98
2022-08-14T00:46:33.735Z,2.55
2022-08-14T00:49:02.151Z,2.17
2022-08-14T00:51:34.826Z,2.40
2022-08-14T00:54:16.691Z,2.55
2022-08-14T00:56:49.204Z,2.85
2022-08-14T00:59:16.193Z,2.55
2022-08-14T01:01:44.902Z,2.15
2022-08-14T01:04:51.770Z,1.73
2022-08-14T01:07:00.940Z,2.70
2022-08-14T01:09:39.115Z,2.35
2022-08-14T01:12:07.823Z,2.63
2022-08-14T01:14:35.634Z,2.22
2022-08-14T01:17:03.701Z,2.30
2022-08-14T01:19:49.597Z,2.20
2022-08-14T01:22:19.111Z,2.05
2022-08-14T01:24:47.669Z,2.63
2022-08-14T01:27:24.254Z,2.72
2022-08-14T01:30:01.001Z,2.55
2022-08-14T01:32:37.357Z,2.85
2022-08-14T01:35:18.333Z,2.53
2022-08-14T01:37:54.859Z,2.25
2022-08-14T01:40:25.382Z,2.58
2022-08-14T01:42:58.649Z,2.25
2022-08-14T01:45:25.843Z,2.08
2022-08-14T01:48:03.320Z,2.38
2022-08-14T01:50:33.699Z,2.67
2022-08-14T01:53:01.483Z,2.55
2022-08-14T01:55:31.428Z,2.45
2022-08-14T01:58:01.523Z,2.53
2022-08-14T02:00:47.888Z,2.08
2022-08-14T02:03:16.250Z,2.90
2022-08-14T02:05:43.848Z,2.30
2022-08-14T02:08:10.919Z,2.65
2022-08-14T02:10:46.393Z,2.65
2022-08-14T02:13:14.038Z,2.80
2022-08-14T02:15:44.188Z,2.60
2022-08-14T02:18:11.884Z,2.95
2022-08-14T02:20:42.574Z,2.30
2022-08-14T02:23:09.508Z,2.67
2022-08-14T02:25:39.498Z,2.45
2022-08-14T02:28:22.971Z,2.30
2022-08-14T02:30:54.491Z,2.60
2022-08-14T02:33:22.747Z,2.58
2022-08-14T02:35:53.366Z,2.42
2022-08-14T02:38:34.986Z,2.67
2022-08-14T02:41:09.030Z,2.33
2022-08-14T02:43:46.508Z,2.47
2022-08-14T02:46:20.371Z,2.28
2022-08-14T02:49:04.363Z,2.13
2022-08-14T02:51:34.812Z,2.80
2022-08-14T02:54:05.776Z,3.00
2022-08-14T02:57:13.908Z,2.15
2022-08-14T02:59:21.093Z,3.03
2022-08-14T03:01:50.939Z,2.45
2022-08-14T03:04:22.132Z,2.22
2022-08-14T03:07:06.204Z,2.80
2022-08-14T03:09:41.960Z,3.40
2022-08-14T03:12:30.939Z,2.17
2022-08-14T03:15:14.360Z,2.67
2022-08-14T03:17:56.438Z,2.67
2022-08-14T03:20:28.823Z,2.58
2022-08-14T03:23:00.215Z,2.35
2022-08-14T03:25:27.305Z,2.78
2022-08-14T03:27:58.779Z,2.65
2022-08-14T03:30:38.985Z,2.63
2022-08-14T03:33:11.965Z,2.45
2022-08-14T03:36:05.190Z,2.75
2022-08-14T03:39:14.168Z,2.53
2022-08-14T03:41:24.818Z,2.08
2022-08-14T03:44:01.316Z,2.60
2022-08-14T03:46:38.966Z,2.97
2022-08-14T03:49:29.384Z,2.30
2022-08-14T03:52:00.914Z,2.40
2022-08-14T03:54:29.593Z,3.15
2022-08-14T03:57:02.774Z,2.33
2022-08-14T03:59:32.321Z,2.85
2022-08-14T04:02:01.668Z,2.50
2022-08-14T04:04:31.363Z,2.90
2022-08-14T04:07:00.163Z,1.83
2022-08-14T04:09:27.878Z,2.63
2022-08-14T04:11:56.136Z,2.95
2022-08-14T04:14:25.153Z,2.60
2022-08-14T04:16:51.953Z,2.33
2022-08-14T04:19:20.634Z,2.25
2022-08-14T04:22:01.737Z,2.10
2022-08-14T04:24:38.996Z,2.23
2022-08-14T04:27:13.466Z,2.72
2022-08-14T04:29:45.181Z,2.70
2022-08-14T04:33:01.663Z,2.17
2022-08-14T04:35:01.155Z,2.75
2022-08-14T04:37:57.833Z,2.28
2022-08-14T04:40:43.203Z,2.20
2022-08-14T04:43:38.561Z,2.65
2022-08-14T04:46:56.043Z,2.80
2022-08-14T04:49:07.995Z,2.53
2022-08-14T04:51:46.949Z,2.72
2022-08-14T04:54:22.448Z,2.30
2022-08-14T04:56:51.375Z,2.50
2022-08-14T04:59:22.253Z,2.72
2022-08-14T05:01:52.876Z,2.72
2022-08-14T05:04:23.023Z,2.17
2022-08-14T05:06:55.277Z,2.45
2022-08-14T05:09:29.327Z,2.65
2022-08-14T05:13:11.918Z,2.85
2022-08-14T05:14:55.257Z,2.63
2022-08-14T05:17:31.839Z,3.17
2022-08-14T05:21:04.282Z,2.70
2022-08-14T05:22:59.878Z,2.78
2022-08-14T05:25:31.004Z,2.70
2022-08-14T05:28:20.654Z,3.55
2022-08-14T05:30:51.074Z,2.38
2022-08-14T05:33:21.028Z,2.97
2022-08-14T05:35:49.171Z,3.10
2022-08-14T05:38:22.222Z,2.60
2022-08-14T05:40:57.748Z,3.30
2022-08-14T05:43:24.649Z,2.33
2022-08-14T05:46:12.167Z,2.38
2022-08-14T05:48:43.353Z,3.08
2022-08-14T05:51:10.505Z,2.70
2022-08-14T05:53:37.340Z,2.58
2022-08-14T05:56:09.348Z,3.92
2022-08-14T05:58:41.423Z,2.50
2022-08-14T06:01:09.631Z,2.90
2022-08-14T06:03:37.196Z,2.72
2022-08-14T06:06:07.880Z,2.90
2022-08-14T06:08:40.971Z,2.90
2022-08-14T06:11:14.853Z,2.50
2022-08-14T06:13:50.747Z,3.05
2022-08-14T06:16:18.988Z,3.15
2022-08-14T06:18:51.778Z,3.30
2022-08-14T06:21:21.975Z,2.92
2022-08-14T06:23:49.685Z,2.97
2022-08-14T06:26:20.595Z,2.72
2022-08-14T06:28:51.708Z,2.83
2022-08-14T06:31:20.976Z,2.25
2022-08-14T06:35:04.467Z,2.28
2022-08-14T06:36:36.755Z,3.35
2022-08-14T06:39:03.934Z,2.50
2022-08-14T06:41:56.619Z,3.30
2022-08-14T06:44:22.154Z,2.88
2022-08-14T06:46:57.756Z,2.80
2022-08-14T06:49:27.311Z,2.65
2022-08-14T06:51:57.441Z,2.30
2022-08-14T06:54:31.345Z,2.53
2022-08-14T06:56:58.715Z,3.00
2022-08-14T06:59:25.513Z,2.70
2022-08-14T07:02:13.144Z,2.40
2022-08-14T07:04:59.564Z,2.38
2022-08-14T07:07:28.744Z,2.47
2022-08-14T07:09:55.904Z,2.78
2022-08-14T07:12:54.663Z,2.70
2022-08-14T07:15:11.046Z,2.85
2022-08-14T07:17:52.223Z,2.95
2022-08-14T07:20:31.427Z,2.30
2022-08-14T07:23:08.070Z,2.78
2022-08-14T07:25:39.046Z,2.30
2022-08-14T07:28:20.901Z,2.42
2022-08-14T07:30:50.661Z,2.38
2022-08-14T07:33:20.773Z,2.22
2022-08-14T07:35:58.013Z,2.17
2022-08-14T07:38:34.047Z,1.90
2022-08-14T07:41:06.986Z,2.28
2022-08-14T07:43:42.013Z,2.55
2022-08-14T07:46:09.700Z,2.13
2022-08-14T07:48:41.236Z,2.00
2022-08-14T07:51:11.227Z,2.15
2022-08-14T07:53:40.841Z,1.85
2022-08-14T07:56:43.866Z,2.25
2022-08-14T07:58:58.794Z,1.88
2022-08-14T08:01:29.952Z,1.65
2022-08-14T08:04:01.410Z,1.52
2022-08-14T08:06:30.766Z,2.20
2022-08-14T08:09:03.004Z,2.22
2022-08-14T08:11:37.427Z,1.38
2022-08-14T08:14:16.266Z,2.20
2022-08-14T08:16:47.534Z,1.90
2022-08-14T08:19:19.424Z,2.15
2022-08-14T08:21:47.635Z,1.88
2022-08-14T08:24:19.796Z,1.45
2022-08-14T08:29:28.642Z,1.73
2022-08-14T08:32:01.771Z,1.33
2022-08-14T08:34:46.558Z,1.50
2022-08-14T08:37:15.187Z,1.80
2022-08-14T08:40:02.314Z,1.83
2022-08-14T08:42:31.135Z,1.25
2022-08-14T08:44:58.686Z,1.48
2022-08-14T08:47:25.464Z,1.55
2022-08-14T08:50:00.046Z,1.55
2022-08-14T08:52:31.828Z,1.45
2022-08-14T08:55:13.505Z,1.60
2022-08-14T08:57:40.285Z,1.27
2022-08-14T09:00:25.270Z,1.75
2022-08-14T09:03:29.873Z,1.67
2022-08-14T09:06:04.069Z,1.38
2022-08-14T09:08:50.821Z,1.90
2022-08-14T09:11:19.719Z,1.92
2022-08-14T09:13:51.665Z,1.52
2022-08-14T09:16:24.901Z,1.63
2022-08-14T09:18:53.118Z,1.88
2022-08-14T09:21:24.354Z,1.80
2022-08-14T09:24:29.225Z,2.13
2022-08-14T09:26:48.830Z,1.60
2022-08-14T09:29:16.503Z,2.05
2022-08-14T09:31:52.621Z,1.85
2022-08-14T09:34:59.256Z,1.70
2022-08-14T09:37:41.144Z,1.75
2022-08-14T09:40:52.406Z,1.83
2022-08-14T09:43:51.860Z,1.92
2022-08-14T09:46:21.174Z,1.75
2022-08-14T09:49:02.754Z,1.65
2022-08-14T09:51:32.907Z,2.28
2022-08-14T09:54:22.544Z,1.88
2022-08-14T09:56:56.763Z,2.22
2022-08-14T09:59:28.205Z,3.67
2022-08-14T10:01:59.691Z,2.60
2022-08-14T10:04:34.257Z,1.77
2022-08-14T10:07:06.345Z,1.60
2022-08-14T10:09:59.455Z,1.60
2022-08-14T10:12:53.160Z,1.45
2022-08-14T10:15:29.989Z,1.02
2022-08-14T10:18:17.645Z,1.00
2022-08-14T10:21:01.711Z,1.08
2022-08-14T10:26:09.098Z,1.35
2022-08-14T10:29:18.984Z,1.38
2022-08-14T10:31:40.325Z,1.25
2022-08-14T10:34:19.010Z,1.35
2022-08-14T10:36:49.805Z,1.38
2022-08-14T10:39:23.642Z,1.30
2022-08-14T10:42:16.531Z,1.30
2022-08-14T10:44:49.174Z,1.23
2022-08-14T10:47:40.472Z,1.63
2022-08-14T10:50:12.138Z,1.38
2022-08-14T10:52:43.510Z,1.40
2022-08-14T10:55:14.776Z,1.13
2022-08-14T10:57:57.594Z,1.60
2022-08-14T11:00:30.228Z,1.58
2022-08-14T11:03:11.025Z,1.30
2022-08-14T11:05:46.142Z,1.20
2022-08-14T11:08:15.556Z,1.40
2022-08-14T11:10:58.707Z,1.38
2022-08-14T11:16:02.359Z,1.35
2022-08-14T11:18:40.205Z,1.20
2022-08-14T11:21:09.435Z,1.02
2022-08-14T11:23:39.886Z,1.30
2022-08-14T11:26:13.319Z,1.10
2022-08-14T11:28:47.522Z,1.40
2022-08-14T11:31:22.157Z,1.23
2022-08-14T11:33:56.930Z,1.05
2022-08-14T11:37:02.012Z,1.15
2022-08-14T11:39:34.299Z,1.00
2022-08-14T11:42:57.999Z,1.17
2022-08-14T11:45:00.934Z,1.30
2022-08-14T11:47:35.402Z,1.17
2022-08-14T11:50:25.007Z,1.15
2022-08-14T11:53:04.285Z,1.00
2022-08-14T11:55:39.568Z,1.00
2022-08-14T11:58:10.643Z,1.20
2022-08-14T12:00:55.016Z,1.13
2022-08-14T12:03:37.711Z,1.13
2022-08-14T12:06:29.577Z,0.98
2022-08-14T12:09:08.711Z,1.48
2022-08-14T12:11:47.519Z,1.58
2022-08-14T12:14:30.669Z,1.10
2022-08-14T12:17:11.928Z,0.93
2022-08-14T12:19:57.085Z,1.27
2022-08-14T12:22:37.375Z,1.20
2022-08-14T12:25:14.852Z,1.02
2022-08-14T12:27:53.242Z,1.02
2022-08-14T12:30:42.466Z,1.23
2022-08-14T12:33:34.033Z,1.05
2022-08-14T12:36:10.085Z,0.90
2022-08-14T12:38:43.920Z,1.33
2022-08-14T12:41:22.006Z,1.30
2022-08-14T12:44:03.345Z,1.10
2022-08-14T12:46:43.703Z,1.70
2022-08-14T12:49:17.839Z,1.10
2022-08-14T12:51:57.795Z,1.15
2022-08-14T12:54:28.257Z,1.23
2022-08-14T12:57:19.417Z,1.20
2022-08-14T12:59:47.638Z,1.30
2022-08-14T13:02:28.654Z,1.05
2022-08-14T13:04:56.780Z,1.05
2022-08-14T13:07:32.512Z,1.42
2022-08-14T13:10:00.471Z,1.30
2022-08-14T13:13:12.055Z,1.10
2022-08-14T13:15:40.170Z,1.60
2022-08-14T13:18:11.410Z,1.00
2022-08-14T13:20:44.144Z,1.20
2022-08-14T13:23:24.578Z,0.90
2022-08-14T13:26:00.076Z,1.25
2022-08-14T13:28:32.996Z,1.20
2022-08-14T13:31:08.942Z,1.95
2022-08-14T13:33:40.694Z,1.40
2022-08-14T13:36:09.756Z,1.13
2022-08-14T13:38:37.191Z,1.10
2022-08-14T13:41:06.321Z,1.58
2022-08-14T13:43:36.734Z,1.40
2022-08-14T13:46:04.062Z,1.50
2022-08-14T13:48:33.341Z,1.10
2022-08-14T13:51:10.891Z,1.10
2022-08-14T13:54:06.921Z,1.20
2022-08-14T13:56:39.857Z,1.27
2022-08-14T13:59:08.146Z,1.70
2022-08-14T14:01:43.277Z,1.25
2022-08-14T14:04:19.156Z,1.60
2022-08-14T14:06:49.691Z,1.40
2022-08-14T14:09:32.450Z,1.58
2022-08-14T14:12:08.119Z,1.35
2022-08-14T14:14:56.300Z,1.15
2022-08-14T14:17:25.046Z,1.20
2022-08-14T14:19:56.589Z,1.63
2022-08-14T14:22:35.601Z,1.48
2022-08-14T14:25:14.454Z,1.55
2022-08-14T14:27:48.945Z,2.28
2022-08-14T14:30:46.505Z,2.03
2022-08-14T14:33:44.117Z,1.80
2022-08-14T14:36:01.722Z,2.05
2022-08-14T14:38:33.657Z,1.75
2022-08-14T14:41:03.834Z,1.93
2022-08-14T14:43:36.131Z,2.05
2022-08-14T14:46:09.433Z,1.95
2022-08-14T14:48:46.726Z,1.92
2022-08-14T14:51:22.299Z,2.15
2022-08-14T14:53:49.308Z,1.95
2022-08-14T14:56:47.601Z,1.63
2022-08-14T15:01:40.603Z,1.50
2022-08-14T15:04:19.844Z,1.98
2022-08-14T15:06:48.909Z,1.50
2022-08-14T15:09:17.871Z,1.55
2022-08-14T15:11:46.903Z,1.45
2022-08-14T15:14:55.245Z,2.00
2022-08-14T15:17:02.211Z,2.22
2022-08-14T15:19:29.180Z,1.60
2022-08-14T15:21:57.697Z,1.80
2022-08-14T15:24:26.979Z,1.80
2022-08-14T15:26:58.663Z,1.70
2022-08-14T15:29:26.300Z,1.83
2022-08-14T15:31:53.923Z,1.77
2022-08-14T15:34:43.571Z,1.40
2022-08-14T15:37:11.023Z,2.00
2022-08-14T15:39:41.390Z,1.95
2022-08-14T15:42:16.345Z,1.42
2022-08-14T15:44:58.372Z,1.67
2022-08-14T15:47:32.166Z,1.92
2022-08-14T15:50:03.092Z,1.52
2022-08-14T15:52:43.102Z,1.63
2022-08-14T15:55:15.459Z,6.85
2022-08-14T15:58:02.323Z,1.65
2022-08-14T16:00:53.580Z,1.83
2022-08-14T16:03:27.832Z,1.98
2022-08-14T16:06:15.527Z,2.03
2022-08-14T16:08:57.688Z,1.95
2022-08-14T16:11:27.088Z,1.60
2022-08-14T16:13:57.616Z,2.10
2022-08-14T16:16:47.138Z,2.08
2022-08-14T16:19:19.786Z,2.08
2022-08-14T16:22:02.193Z,2.40
2022-08-14T16:24:57.816Z,2.20
2022-08-14T16:27:38.744Z,2.55
2022-08-14T16:30:24.571Z,2.35
2022-08-14T16:32:59.405Z,2.55
2022-08-14T16:35:42.829Z,2.70
2022-08-14T16:38:45.736Z,2.63
2022-08-14T16:41:27.257Z,2.60
2022-08-14T16:44:02.558Z,3.22
2022-08-14T16:46:38.319Z,2.67
2022-08-14T16:49:13.993Z,2.58
2022-08-14T16:51:42.644Z,2.95
2022-08-14T16:54:34.279Z,3.20
2022-08-14T16:57:28.196Z,2.55
2022-08-14T17:00:00.458Z,2.75
2022-08-14T17:02:42.907Z,2.75
2022-08-14T17:05:29.054Z,3.17
2022-08-14T17:08:07.350Z,3.17
2022-08-14T17:10:52.153Z,3.40
2022-08-14T17:13:59.983Z,3.47
2022-08-14T17:16:25.465Z,3.10
2022-08-14T17:19:00.633Z,2.75
2022-08-14T17:21:40.982Z,2.75
2022-08-14T17:24:56.537Z,3.00
2022-08-14T17:27:04.419Z,2.50
2022-08-14T17:29:54.419Z,3.15
2022-08-14T17:32:29.750Z,3.00
2022-08-14T17:35:16.349Z,2.80
2022-08-14T17:37:55.829Z,3.42
2022-08-14T17:40:25.839Z,2.88
2022-08-14T17:43:02.247Z,2.50
2022-08-14T17:45:41.067Z,2.63
2022-08-14T17:49:10.651Z,3.17
2022-08-14T17:51:24.083Z,3.83
2022-08-14T17:54:01.523Z,3.45
2022-08-14T17:59:06.330Z,2.63
2022-08-14T18:01:45.880Z,3.15
2022-08-14T18:04:25.188Z,3.63
2022-08-14T18:07:16.101Z,3.35
2022-08-14T18:09:56.919Z,3.67
2022-08-14T18:12:36.489Z,2.97
2022-08-14T18:15:14.765Z,3.35
2022-08-14T18:17:53.228Z,3.67
2022-08-14T18:21:40.420Z,3.00
2022-08-14T18:23:13.322Z,3.25
2022-08-14T18:25:48.946Z,3.47
2022-08-14T18:28:18.315Z,2.92
2022-08-14T18:31:22.800Z,3.25
2022-08-14T18:34:11.876Z,3.83
2022-08-14T18:36:54.363Z,2.80
2022-08-14T18:40:01.643Z,2.45
2022-08-14T18:42:23.364Z,3.78
2022-08-14T18:44:50.817Z,3.38
2022-08-14T18:47:17.600Z,3.58
2022-08-14T18:49:53.335Z,3.50
2022-08-14T18:52:38.979Z,3.15
2022-08-14T18:55:21.232Z,3.47
2022-08-14T18:58:28.194Z,3.20
2022-08-14T19:00:58.967Z,3.15
2022-08-14T19:03:36.396Z,3.10
2022-08-14T19:06:09.921Z,3.42
2022-08-14T19:11:34.389Z,3.75
2022-08-14T19:14:04.633Z,2.95
2022-08-14T19:16:35.595Z,3.10
2022-08-14T19:19:07.090Z,3.70
2022-08-14T19:21:56.439Z,3.28
2022-08-14T19:24:43.559Z,3.85
2022-08-14T19:27:26.168Z,3.22
2022-08-14T19:30:20.338Z,3.13
2022-08-14T19:32:53.090Z,3.20
2022-08-14T19:35:48.676Z,3.05
2022-08-14T19:38:59.280Z,4.18
2022-08-14T19:41:30.128Z,3.33
2022-08-14T19:44:15.391Z,3.00
2022-08-14T19:47:01.307Z,3.63
2022-08-14T19:50:24.535Z,2.90
2022-08-14T19:52:37.065Z,3.70
2022-08-14T19:55:20.351Z,3.67
2022-08-14T19:57:58.636Z,3.40
2022-08-14T20:00:29.272Z,3.00
2022-08-14T20:03:10.884Z,3.33
2022-08-14T20:05:45.665Z,3.40
2022-08-14T20:11:02.421Z,3.35
2022-08-14T20:11:15.810Z,3.60
2022-08-14T20:13:46.932Z,3.45
2022-08-14T20:16:21.158Z,3.25
2022-08-14T20:19:17.103Z,3.78
2022-08-14T20:21:58.331Z,3.50
2022-08-14T20:24:45.216Z,3.50
2022-08-14T20:27:24.824Z,3.10
2022-08-14T20:30:29.701Z,2.67
2022-08-14T20:33:07.466Z,3.22
2022-08-14T20:35:39.889Z,3.05
2022-08-14T20:38:30.392Z,3.15
2022-08-14T20:41:09.670Z,3.55
2022-08-14T20:44:02.703Z,3.35
2022-08-14T20:46:38.942Z,3.45
2022-08-14T20:49:16.762Z,2.88
2022-08-14T20:51:54.702Z,3.30
2022-08-14T20:54:34.391Z,3.47
2022-08-14T20:57:08.245Z,2.97
2022-08-14T20:59:53.207Z,3.10
2022-08-14T21:02:38.707Z,3.00
2022-08-14T21:05:19.339Z,3.50
2022-08-14T21:07:51.275Z,3.55
2022-08-14T21:10:43.930Z,3.55
2022-08-14T21:14:08.542Z,3.65
2022-08-14T21:16:04.102Z,2.85
2022-08-14T21:18:35.078Z,4.07
2022-08-14T21:21:20.616Z,2.83
2022-08-14T21:23:54.255Z,3.53
2022-08-14T21:26:50.860Z,2.85
2022-08-14T21:29:14.518Z,3.17
2022-08-14T21:31:42.628Z,3.53
2022-08-14T21:34:31.065Z,3.22
2022-08-14T21:37:07.846Z,4.15
2022-08-14T21:39:36.823Z,3.28
2022-08-14T21:42:06.008Z,3.25
2022-08-14T21:44:42.660Z,2.90
2022-08-14T21:47:12.737Z,3.25
2022-08-14T21:49:43.153Z,3.30
2022-08-14T21:52:49.832Z,2.75
2022-08-14T21:55:13.648Z,2.50
2022-08-14T21:58:45.761Z,3.00
2022-08-14T22:00:42.043Z,3.38
2022-08-14T22:03:17.557Z,2.88
2022-08-14T22:05:52.216Z,2.92
2022-08-14T22:08:22.543Z,3.47
2022-08-14T22:10:55.201Z,3.47
2022-08-14T22:13:26.664Z,3.40
2022-08-14T22:15:59.735Z,3.30
2022-08-14T22:18:29.704Z,3.00
2022-08-14T22:20:57.315Z,3.65
2022-08-14T22:23:25.685Z,3.65
2022-08-14T22:25:53.686Z,3.67
2022-08-14T22:28:32.745Z,3.15
2022-08-14T22:31:10.325Z,3.13
2022-08-14T22:33:38.640Z,3.50
2022-08-14T22:36:25.899Z,2.90
2022-08-14T22:38:54.561Z,3.25
2022-08-14T22:41:26.713Z,3.47
2022-08-14T22:44:12.709Z,3.58
2022-08-14T22:46:43.310Z,3.00
2022-08-14T22:49:15.542Z,3.38
2022-08-14T22:51:59.582Z,3.40
2022-08-14T22:54:53.144Z,3.60
2022-08-14T22:57:14.912Z,3.30
2022-08-14T22:59:41.884Z,3.65
2022-08-14T23:02:16.413Z,3.15
2022-08-14T23:04:53.749Z,3.38
2022-08-14T23:07:26.053Z,3.42
2022-08-14T23:10:32.941Z,3.75
2022-08-14T23:13:00.423Z,2.95
2022-08-14T23:15:28.731Z,3.85
2022-08-14T23:17:56.908Z,3.53
2022-08-14T23:20:29.084Z,3.83
2022-08-14T23:22:57.871Z,3.10
2022-08-14T23:25:57.414Z,3.28
2022-08-14T23:28:34.281Z,4.50
2022-08-14T23:31:14.076Z,3.40
2022-08-14T23:33:46.053Z,4.32
2022-08-14T23:36:32.358Z,3.38
2022-08-14T23:39:07.156Z,2.35
2022-08-14T23:41:46.970Z,3.78
2022-08-14T23:44:23.542Z,3.72
2022-08-14T23:46:57.155Z,3.33
2022-08-14T23:49:56.923Z,3.30
2022-08-14T23:52:56.317Z,3.65
2022-08-14T23:55:11.388Z,3.28
2022-08-14T23:57:43.978Z,3.03
